createdAt,value
2022-11-05T00:01:19.651Z,14.00
2022-11-05T00:06:41.218Z,14.61
2022-11-05T00:12:02.688Z,12.95
2022-11-05T00:17:05.482Z,12.47
2022-11-05T00:22:27.152Z,13.77
2022-11-05T00:27:33.186Z,14.27
2022-11-05T00:32:36.073Z,13.00
2022-11-05T00:37:38.865Z,12.36
2022-11-05T00:43:02.120Z,13.53
2022-11-05T00:48:24.108Z,14.00
2022-11-05T00:53:26.943Z,13.18
2022-11-05T00:58:30.215Z,12.05
2022-11-05T01:03:35.294Z,13.29
2022-11-05T01:08:38.699Z,13.96
2022-11-05T01:13:41.594Z,12.82
2022-11-05T01:18:44.397Z,11.95
2022-11-05T01:23:47.260Z,13.05
2022-11-05T01:28:55.095Z,13.67
2022-11-05T01:34:00.654Z,13.95
2022-11-05T01:39:04.004Z,13.80
2022-11-05T01:44:47.161Z,11.73
2022-11-05T01:49:50.399Z,12.46
2022-11-05T01:54:53.290Z,13.26
2022-11-05T02:00:00.104Z,13.51
2022-11-05T02:05:07.488Z,13.69
2022-11-05T02:10:14.529Z,13.00
2022-11-05T02:15:44.878Z,12.13
2022-11-05T02:20:52.031Z,13.25
2022-11-05T02:26:27.516Z,13.68
2022-11-05T02:31:36.310Z,13.91
2022-11-05T02:37:00.373Z,14.01
2022-11-05T02:42:39.572Z,14.06
2022-11-05T02:47:49.797Z,14.12
2022-11-05T02:53:07.883Z,13.92
2022-11-05T02:58:11.232Z,12.17
2022-11-05T03:03:23.148Z,13.01
2022-11-05T03:08:57.449Z,13.72
2022-11-05T03:14:29.713Z,13.84
2022-11-05T03:19:43.697Z,14.02
2022-11-05T03:24:51.279Z,13.01
2022-11-05T03:30:00.848Z,12.19
2022-11-05T03:35:14.869Z,13.24
2022-11-05T03:40:19.184Z,13.63
2022-11-05T03:45:31.988Z,13.74
2022-11-05T03:50:51.633Z,13.73
2022-11-05T03:56:13.525Z,13.65
2022-11-05T04:01:16.608Z,13.79
2022-11-05T04:06:38.173Z,13.88
2022-11-05T04:12:00.007Z,13.92
2022-11-05T04:17:11.503Z,13.78
2022-11-05T04:22:32.976Z,11.99
2022-11-05T04:27:36.047Z,12.90
2022-11-05T04:32:38.769Z,13.37
2022-11-05T04:37:41.516Z,13.64
2022-11-05T04:42:44.284Z,13.72
2022-11-05T04:47:47.053Z,13.83
2022-11-05T04:52:50.149Z,13.82
2022-11-05T04:57:54.491Z,13.91
2022-11-05T05:02:57.272Z,14.01
2022-11-05T05:08:05.514Z,14.12
2022-11-05T05:13:11.888Z,14.26
2022-11-05T05:18:14.937Z,14.33
2022-11-05T05:23:17.797Z,13.47
2022-11-05T05:28:20.853Z,12.54
2022-11-05T05:33:23.609Z,13.50
2022-11-05T05:38:26.401Z,13.97
2022-11-05T05:43:30.785Z,14.21
2022-11-05T05:48:34.610Z,14.22
2022-11-05T05:53:38.796Z,12.52
2022-11-05T05:58:42.203Z,12.98
2022-11-05T06:03:44.995Z,13.81
2022-11-05T06:08:49.194Z,14.16
2022-11-05T06:13:52.220Z,14.38
2022-11-05T06:18:55.060Z,14.29
2022-11-05T06:24:00.134Z,12.64
2022-11-05T06:29:04.268Z,13.49
2022-11-05T06:34:07.190Z,14.49
2022-11-05T06:39:11.399Z,13.79
2022-11-05T06:44:14.307Z,12.41
2022-11-05T06:49:17.165Z,13.67
2022-11-05T06:54:20.100Z,14.35
2022-11-05T06:59:22.921Z,14.76
2022-11-05T07:04:25.950Z,13.93
2022-11-05T07:09:29.484Z,12.79
2022-11-05T07:14:32.379Z,14.00
2022-11-05T07:19:35.271Z,14.65
2022-11-05T07:24:38.064Z,14.94
2022-11-05T07:29:41.030Z,13.20
2022-11-05T07:34:45.257Z,13.21
2022-11-05T07:39:48.036Z,14.24
2022-11-05T07:44:50.836Z,14.73
2022-11-05T07:49:53.667Z,14.89
2022-11-05T07:54:56.535Z,13.12
2022-11-05T07:59:59.446Z,13.24
2022-11-05T08:05:04.257Z,14.36
2022-11-05T08:10:07.907Z,14.86
2022-11-05T08:15:12.094Z,15.09
2022-11-05T08:20:16.495Z,15.04
2022-11-05T08:25:19.347Z,13.11
2022-11-05T08:30:22.366Z,13.64
2022-11-05T08:35:26.589Z,14.68
2022-11-05T08:40:35.058Z,15.16
2022-11-05T08:45:38.873Z,15.46
2022-11-05T08:50:42.227Z,15.64
2022-11-05T08:55:47.646Z,14.04
2022-11-05T09:00:52.487Z,13.63
2022-11-05T09:05:55.819Z,14.99
2022-11-05T09:10:58.659Z,15.59
2022-11-05T09:16:03.700Z,15.92
2022-11-05T09:21:07.826Z,15.61
2022-11-05T09:26:15.252Z,13.76
2022-11-05T09:31:19.649Z,14.67
2022-11-05T09:36:22.440Z,15.61
2022-11-05T09:41:32.214Z,16.03
2022-11-05T09:46:58.727Z,14.77
2022-11-05T09:52:02.602Z,14.24
2022-11-05T09:57:08.031Z,15.46
2022-11-05T10:02:17.101Z,16.03
2022-11-05T10:07:38.037Z,15.98
2022-11-05T10:12:50.362Z,14.05
2022-11-05T10:18:19.272Z,14.90
2022-11-05T10:23:23.476Z,16.07
2022-11-05T10:28:31.008Z,16.56
2022-11-05T10:33:50.663Z,16.06
2022-11-05T10:39:00.125Z,14.36
2022-11-05T10:44:33.414Z,15.64
2022-11-05T10:49:51.252Z,16.67
2022-11-05T10:55:01.009Z,16.22
2022-11-05T11:00:16.804Z,14.58
2022-11-05T11:05:40.292Z,15.80
2022-11-05T11:10:57.624Z,16.54
2022-11-05T11:16:20.737Z,16.84
2022-11-05T11:21:24.263Z,16.07
2022-11-05T11:26:32.201Z,14.57
2022-11-05T11:31:39.851Z,15.99
2022-11-05T11:36:48.989Z,16.76
2022-11-05T11:41:55.103Z,15.24
2022-11-05T11:47:03.907Z,15.04
2022-11-05T11:52:29.626Z,16.50
2022-11-05T11:57:53.334Z,16.76
2022-11-05T12:03:41.092Z,15.06
2022-11-05T12:09:03.643Z,16.24
2022-11-05T12:14:45.158Z,16.51
2022-11-05T12:20:08.153Z,14.58
2022-11-05T12:25:36.630Z,15.77
2022-11-05T12:31:17.353Z,16.89
2022-11-05T12:36:39.027Z,14.85
2022-11-05T12:42:09.707Z,15.34
2022-11-05T12:47:21.631Z,16.71
2022-11-05T12:52:33.652Z,16.44
2022-11-05T12:57:43.160Z,14.50
2022-11-05T13:03:07.137Z,15.35
2022-11-05T13:08:41.751Z,16.53
2022-11-05T13:14:19.881Z,15.97
2022-11-05T13:19:40.675Z,14.40
2022-11-05T13:24:53.152Z,15.90
2022-11-05T13:30:02.502Z,16.69
2022-11-05T13:35:13.515Z,15.96
2022-11-05T13:40:22.547Z,13.99
2022-11-05T13:46:05.396Z,14.82
2022-11-05T13:51:24.894Z,16.34
2022-11-05T13:56:42.602Z,16.82
2022-11-05T14:01:49.943Z,15.43
2022-11-05T14:06:53.885Z,14.56
2022-11-05T14:11:59.194Z,16.14
2022-11-05T14:17:07.832Z,16.72
2022-11-05T14:22:38.403Z,15.00
2022-11-05T14:27:51.028Z,15.23
2022-11-05T14:33:04.364Z,16.52
2022-11-05T14:38:26.445Z,16.21
2022-11-05T14:43:33.860Z,14.37
2022-11-05T14:48:53.943Z,15.54
2022-11-05T14:54:29.588Z,16.61
2022-11-05T14:59:52.236Z,15.91
2022-11-05T15:05:36.044Z,14.85
2022-11-05T15:10:40.658Z,16.29
2022-11-05T15:15:47.048Z,16.60
2022-11-05T15:20:54.814Z,14.82
2022-11-05T15:26:16.217Z,14.93
2022-11-05T15:31:36.337Z,16.30
2022-11-05T15:36:40.328Z,16.32
2022-11-05T15:41:43.142Z,14.35
2022-11-05T15:46:45.992Z,15.05
2022-11-05T15:51:48.782Z,16.19
2022-11-05T15:56:54.731Z,16.66
2022-11-05T16:02:13.821Z,15.26
2022-11-05T16:07:18.201Z,14.56
2022-11-05T16:12:21.145Z,16.06
2022-11-05T16:17:27.423Z,16.23
2022-11-05T16:22:43.106Z,14.42
2022-11-05T16:27:46.505Z,15.42
2022-11-05T16:32:49.654Z,16.36
2022-11-05T16:37:52.855Z,15.93
2022-11-05T16:43:00.850Z,14.09
2022-11-05T16:48:03.920Z,15.25
2022-11-05T16:53:06.809Z,16.24
2022-11-05T16:58:22.729Z,15.84
2022-11-05T17:03:25.888Z,13.86
2022-11-05T17:08:28.733Z,14.92
2022-11-05T17:13:32.038Z,16.04
2022-11-05T17:18:34.946Z,16.15
2022-11-05T17:23:38.150Z,14.22
2022-11-05T17:28:41.419Z,13.77
2022-11-05T17:33:44.449Z,15.45
2022-11-05T17:38:47.279Z,16.31
2022-11-05T17:43:55.697Z,15.68
2022-11-05T17:48:58.494Z,13.88
2022-11-05T17:54:01.427Z,15.07
2022-11-05T17:59:04.270Z,16.12
2022-11-05T18:04:08.902Z,15.80
2022-11-05T18:09:13.233Z,13.89
2022-11-05T18:14:21.324Z,14.88
2022-11-05T18:19:27.861Z,16.07
2022-11-05T18:24:30.679Z,15.72
2022-11-05T18:29:33.605Z,13.87
2022-11-05T18:34:36.401Z,14.93
2022-11-05T18:39:39.647Z,15.93
2022-11-05T18:44:42.512Z,15.92
2022-11-05T18:49:45.315Z,13.92
2022-11-05T18:54:48.084Z,14.45
2022-11-05T18:59:52.161Z,15.67
2022-11-05T19:05:26.881Z,16.11
2022-11-05T19:10:17.841Z,14.59
2022-11-05T19:15:20.672Z,14.42
2022-11-05T19:20:23.542Z,15.49
2022-11-05T19:25:26.463Z,15.89
2022-11-05T19:30:31.291Z,15.66
2022-11-05T19:35:39.913Z,13.66
2022-11-05T19:40:44.184Z,14.67
2022-11-05T19:45:47.169Z,15.70
2022-11-05T19:50:50.102Z,15.99
2022-11-05T19:55:52.931Z,14.27
2022-11-05T20:00:56.133Z,14.41
2022-11-05T20:06:04.856Z,15.67
2022-11-05T20:11:09.220Z,15.31
2022-11-05T20:16:28.519Z,13.50
2022-11-05T20:21:32.009Z,14.71
2022-11-05T20:26:35.350Z,15.68
2022-11-05T20:31:38.118Z,15.13
2022-11-05T20:36:41.475Z,13.28
2022-11-05T20:41:44.297Z,14.59
2022-11-05T20:46:54.243Z,15.69
2022-11-05T20:51:57.451Z,14.24
2022-11-05T20:57:00.467Z,13.53
2022-11-05T21:02:04.059Z,15.24
2022-11-05T21:07:07.084Z,15.12
2022-11-05T21:12:12.795Z,13.16
2022-11-05T21:17:15.593Z,13.93
2022-11-05T21:22:18.459Z,15.40
2022-11-05T21:27:21.239Z,13.87
2022-11-05T21:32:24.024Z,13.15
2022-11-05T21:37:26.845Z,14.91
2022-11-05T21:42:30.058Z,14.78
2022-11-05T21:47:33.004Z,12.75
2022-11-05T21:52:59.101Z,13.36
2022-11-05T21:58:29.699Z,14.87
2022-11-05T22:03:32.962Z,14.24
2022-11-05T22:08:38.088Z,12.29
2022-11-05T22:13:40.873Z,13.24
2022-11-05T22:18:43.781Z,14.57
2022-11-05T22:23:46.590Z,13.84
2022-11-05T22:28:49.451Z,12.03
2022-11-05T22:33:52.812Z,13.08
2022-11-05T22:38:55.575Z,14.36
2022-11-05T22:44:00.379Z,13.23
2022-11-05T22:49:03.625Z,12.27
2022-11-05T22:54:07.622Z,13.75
2022-11-05T22:59:15.361Z,14.17
2022-11-05T23:04:18.180Z,12.24
2022-11-05T23:09:41.247Z,11.89
2022-11-05T23:14:44.048Z,13.57
2022-11-05T23:20:05.660Z,13.88
2022-11-05T23:25:11.203Z,11.76
2022-11-05T23:30:17.502Z,11.58
2022-11-05T23:35:43.086Z,13.32
2022-11-05T23:41:04.727Z,12.98
2022-11-05T23:46:27.218Z,11.25
2022-11-05T23:51:29.950Z,13.04
2022-11-05T23:56:33.016Z,13.89
